createdAt,value
2022-10-23T00:00:15.734Z,12.26
2022-10-23T00:02:42.404Z,12.05
2022-10-23T00:05:09.222Z,12.27
2022-10-23T00:07:35.703Z,12.27
2022-10-23T00:10:02.340Z,12.09
2022-10-23T00:12:28.774Z,12.23
2022-10-23T00:14:55.195Z,12.21
2022-10-23T00:17:21.558Z,12.27
2022-10-23T00:19:47.926Z,12.28
2022-10-23T00:22:14.302Z,12.22
2022-10-23T00:24:40.675Z,12.27
2022-10-23T00:27:07.077Z,11.95
2022-10-23T00:29:33.499Z,11.99
2022-10-23T00:31:59.912Z,12.17
2022-10-23T00:34:26.300Z,11.99
2022-10-23T00:36:52.719Z,12.03
2022-10-23T00:39:19.132Z,12.11
2022-10-23T00:41:45.525Z,12.23
2022-10-23T00:44:18.003Z,12.31
2022-10-23T00:46:44.589Z,12.36
2022-10-23T00:51:50.085Z,12.32
2022-10-23T00:54:26.622Z,12.25
2022-10-23T00:56:56.130Z,12.23
2022-10-23T00:59:23.082Z,12.20
2022-10-23T01:01:49.757Z,12.04
2022-10-23T01:04:16.509Z,12.15
2022-10-23T01:07:07.012Z,12.27
2022-10-23T01:09:53.538Z,12.27
2022-10-23T01:12:30.637Z,12.25
2022-10-23T01:15:31.996Z,12.25
2022-10-23T01:18:07.547Z,11.89
2022-10-23T01:20:40.989Z,11.96
2022-10-23T01:23:35.295Z,11.83
2022-10-23T01:26:32.709Z,12.22
2022-10-23T01:29:14.268Z,12.22
2022-10-23T01:31:49.170Z,12.21
2022-10-23T01:34:27.697Z,12.33
2022-10-23T01:36:55.437Z,12.37
2022-10-23T01:39:31.043Z,12.39
2022-10-23T01:42:08.500Z,12.23
2022-10-23T01:44:41.789Z,12.53
2022-10-23T01:47:12.218Z,12.11
2022-10-23T01:49:41.990Z,12.09
2022-10-23T01:52:12.985Z,12.48
2022-10-23T01:54:42.946Z,12.40
2022-10-23T01:57:13.003Z,12.51
2022-10-23T01:59:44.342Z,12.14
2022-10-23T02:02:13.327Z,12.32
2022-10-23T02:04:50.811Z,12.31
2022-10-23T02:07:17.293Z,12.33
2022-10-23T02:09:43.748Z,12.23
2022-10-23T02:12:45.485Z,12.24
2022-10-23T02:15:20.103Z,11.97
2022-10-23T02:18:13.155Z,12.33
2022-10-23T02:20:46.442Z,11.93
2022-10-23T02:23:27.255Z,11.98
2022-10-23T02:26:00.308Z,12.34
2022-10-23T02:28:34.897Z,12.48
2022-10-23T02:31:04.314Z,12.39
2022-10-23T02:33:32.645Z,12.18
2022-10-23T02:35:59.051Z,12.36
2022-10-23T02:38:36.006Z,12.46
2022-10-23T02:41:17.344Z,12.23
2022-10-23T02:43:57.392Z,12.55
2022-10-23T02:46:54.444Z,12.40
2022-10-23T02:50:00.193Z,12.49
2022-10-23T02:52:38.470Z,12.65
2022-10-23T02:55:22.782Z,12.58
2022-10-23T02:58:07.323Z,12.28
2022-10-23T03:00:37.402Z,12.09
2022-10-23T03:03:14.802Z,12.35
2022-10-23T03:05:42.065Z,12.15
2022-10-23T03:08:10.325Z,12.17
2022-10-23T03:10:37.136Z,12.33
2022-10-23T03:13:04.008Z,12.31
2022-10-23T03:15:30.700Z,11.99
2022-10-23T03:17:57.135Z,12.30
2022-10-23T03:20:23.548Z,11.97
2022-10-23T03:22:49.972Z,12.36
2022-10-23T03:25:16.376Z,12.07
2022-10-23T03:27:42.763Z,12.36
2022-10-23T03:30:10.027Z,11.99
2022-10-23T03:32:36.605Z,12.15
2022-10-23T03:35:04.031Z,12.36
2022-10-23T03:37:30.415Z,12.27
2022-10-23T03:39:56.818Z,12.51
2022-10-23T03:42:23.220Z,12.65
2022-10-23T03:44:49.597Z,12.26
2022-10-23T03:47:15.986Z,12.56
2022-10-23T03:49:42.416Z,12.43
2022-10-23T03:52:08.892Z,12.41
2022-10-23T03:54:35.697Z,12.18
2022-10-23T03:57:02.379Z,12.10
2022-10-23T03:59:29.370Z,12.61
2022-10-23T04:01:55.996Z,12.29
2022-10-23T04:04:22.511Z,12.58
2022-10-23T04:06:48.906Z,12.52
2022-10-23T04:09:15.834Z,12.64
2022-10-23T04:11:42.289Z,12.53
2022-10-23T04:14:12.104Z,12.42
2022-10-23T04:16:38.811Z,12.53
2022-10-23T04:19:05.257Z,12.16
2022-10-23T04:21:31.693Z,12.13
2022-10-23T04:23:58.062Z,12.44
2022-10-23T04:26:24.555Z,12.51
2022-10-23T04:28:50.980Z,12.49
2022-10-23T04:31:17.379Z,12.52
2022-10-23T04:33:43.879Z,12.45
2022-10-23T04:36:10.421Z,12.45
2022-10-23T04:38:36.855Z,12.00
2022-10-23T04:41:03.527Z,11.89
2022-10-23T04:43:29.946Z,12.35
2022-10-23T04:45:56.319Z,12.02
2022-10-23T04:48:25.587Z,12.31
2022-10-23T04:51:05.243Z,12.25
2022-10-23T04:53:32.062Z,12.25
2022-10-23T04:55:59.836Z,11.91
2022-10-23T04:58:27.924Z,11.97
2022-10-23T05:00:54.514Z,12.25
2022-10-23T05:03:23.895Z,11.86
2022-10-23T05:05:53.469Z,11.82
2022-10-23T05:08:20.121Z,11.79
2022-10-23T05:10:48.937Z,12.06
2022-10-23T05:13:17.245Z,12.17
2022-10-23T05:18:31.063Z,12.14
2022-10-23T05:21:02.273Z,12.11
2022-10-23T05:23:31.963Z,11.79
2022-10-23T05:25:58.382Z,12.16
2022-10-23T05:28:24.822Z,12.15
2022-10-23T05:30:51.313Z,11.84
2022-10-23T05:33:17.924Z,12.18
2022-10-23T05:35:44.924Z,12.12
2022-10-23T05:38:12.969Z,11.93
2022-10-23T05:43:10.723Z,11.96
2022-10-23T05:45:37.140Z,12.09
2022-10-23T05:48:11.071Z,12.17
2022-10-23T05:50:43.330Z,12.14
2022-10-23T05:53:10.745Z,12.17
2022-10-23T05:55:37.233Z,12.00
2022-10-23T05:58:04.288Z,12.10
2022-10-23T06:00:30.847Z,12.43
2022-10-23T06:03:00.042Z,12.18
2022-10-23T06:05:26.597Z,11.90
2022-10-23T06:07:57.406Z,11.93
2022-10-23T06:10:23.824Z,11.97
2022-10-23T06:12:51.156Z,12.30
2022-10-23T06:15:17.816Z,12.45
2022-10-23T06:17:44.466Z,12.30
2022-10-23T06:20:11.346Z,12.38
2022-10-23T06:22:37.726Z,12.20
2022-10-23T06:25:04.494Z,12.24
2022-10-23T06:27:30.860Z,11.99
2022-10-23T06:29:57.237Z,12.21
2022-10-23T06:32:23.629Z,12.02
2022-10-23T06:34:49.987Z,11.95
2022-10-23T06:37:16.393Z,12.29
2022-10-23T06:39:42.819Z,12.23
2022-10-23T06:42:09.223Z,12.30
2022-10-23T06:44:35.593Z,12.30
2022-10-23T06:47:01.975Z,12.09
2022-10-23T06:49:31.442Z,12.41
2022-10-23T06:51:57.854Z,12.42
2022-10-23T06:54:24.237Z,12.30
2022-10-23T06:56:51.187Z,12.42
2022-10-23T06:59:17.616Z,12.14
2022-10-23T07:01:44.170Z,12.15
2022-10-23T07:04:11.138Z,12.57
2022-10-23T07:06:37.497Z,12.61
2022-10-23T07:09:04.024Z,12.44
2022-10-23T07:11:30.422Z,12.43
2022-10-23T07:13:56.832Z,12.73
2022-10-23T07:16:24.002Z,12.59
2022-10-23T07:18:55.727Z,12.56
2022-10-23T07:21:22.160Z,12.64
2022-10-23T07:23:48.523Z,12.32
2022-10-23T07:26:16.416Z,12.66
2022-10-23T07:28:45.237Z,12.73
2022-10-23T07:31:12.471Z,12.76
2022-10-23T07:33:38.946Z,12.75
2022-10-23T07:36:07.535Z,12.51
2022-10-23T07:38:34.971Z,12.78
2022-10-23T07:41:01.802Z,12.76
2022-10-23T07:43:28.414Z,12.64
2022-10-23T07:45:55.536Z,12.97
2022-10-23T07:48:22.384Z,13.00
2022-10-23T07:50:48.792Z,13.01
2022-10-23T07:53:24.241Z,13.05
2022-10-23T07:55:55.586Z,12.99
2022-10-23T07:58:22.461Z,12.98
2022-10-23T08:01:03.692Z,13.15
2022-10-23T08:03:32.701Z,12.86
2022-10-23T08:06:00.026Z,13.35
2022-10-23T08:08:26.561Z,13.33
2022-10-23T08:10:54.590Z,13.35
2022-10-23T08:13:22.051Z,13.35
2022-10-23T08:15:50.469Z,13.16
2022-10-23T08:18:17.401Z,13.05
2022-10-23T08:20:46.017Z,13.46
2022-10-23T08:23:13.757Z,13.44
2022-10-23T08:25:40.760Z,13.53
2022-10-23T08:28:08.791Z,13.58
2022-10-23T08:30:36.558Z,13.53
2022-10-23T08:33:04.549Z,13.19
2022-10-23T08:35:30.990Z,13.32
2022-10-23T08:37:57.431Z,13.59
2022-10-23T08:40:25.152Z,13.65
2022-10-23T08:43:13.203Z,13.69
2022-10-23T08:45:45.207Z,13.63
2022-10-23T08:48:32.978Z,13.78
2022-10-23T08:51:06.088Z,13.41
2022-10-23T08:53:53.156Z,13.53
2022-10-23T08:56:35.000Z,13.78
2022-10-23T08:59:28.977Z,13.94
2022-10-23T09:02:10.712Z,13.98
2022-10-23T09:04:37.573Z,13.74
2022-10-23T09:07:21.586Z,14.04
2022-10-23T09:10:06.688Z,14.11
2022-10-23T09:12:33.238Z,14.11
2022-10-23T09:15:05.477Z,13.73
2022-10-23T09:17:34.460Z,14.22
2022-10-23T09:20:23.743Z,14.24
2022-10-23T09:22:54.846Z,13.94
2022-10-23T09:25:27.559Z,14.15
2022-10-23T09:27:59.054Z,14.36
2022-10-23T09:30:37.330Z,14.18
2022-10-23T09:33:27.311Z,14.31
2022-10-23T09:36:18.303Z,14.37
2022-10-23T09:38:50.595Z,14.52
2022-10-23T09:41:36.576Z,14.68
2022-10-23T09:44:32.918Z,14.59
2022-10-23T09:47:08.980Z,14.62
2022-10-23T09:49:35.754Z,14.63
2022-10-23T09:52:05.016Z,14.81
2022-10-23T09:54:57.224Z,14.78
2022-10-23T09:57:41.873Z,14.68
2022-10-23T10:00:14.630Z,15.03
2022-10-23T10:02:43.652Z,15.01
2022-10-23T10:05:31.880Z,15.25
2022-10-23T10:08:13.623Z,15.43
2022-10-23T10:10:47.391Z,15.45
2022-10-23T10:13:32.481Z,15.60
2022-10-23T10:16:08.649Z,15.29
2022-10-23T10:18:50.356Z,15.37
2022-10-23T10:21:27.830Z,15.44
2022-10-23T10:23:57.261Z,15.35
2022-10-23T10:26:38.891Z,15.37
2022-10-23T10:29:27.058Z,15.42
2022-10-23T10:32:25.890Z,15.36
2022-10-23T10:35:07.158Z,15.65
2022-10-23T10:38:14.432Z,15.71
2022-10-23T10:41:10.224Z,15.70
2022-10-23T10:44:08.838Z,16.01
2022-10-23T10:46:47.635Z,15.90
2022-10-23T10:49:22.897Z,16.08
2022-10-23T10:51:58.440Z,16.31
2022-10-23T10:54:31.046Z,16.28
2022-10-23T10:57:00.164Z,16.37
2022-10-23T10:59:35.670Z,16.27
2022-10-23T11:02:19.797Z,16.32
2022-10-23T11:04:53.025Z,16.22
2022-10-23T11:07:23.703Z,16.40
2022-10-23T11:09:50.445Z,16.29
2022-10-23T11:12:21.645Z,16.43
2022-10-23T11:14:49.853Z,16.12
2022-10-23T11:17:21.509Z,16.43
2022-10-23T11:20:09.060Z,16.15
2022-10-23T11:22:42.958Z,16.52
2022-10-23T11:25:34.585Z,16.62
2022-10-23T11:28:35.557Z,16.73
2022-10-23T11:31:11.887Z,16.74
2022-10-23T11:34:13.651Z,16.95
2022-10-23T11:36:53.574Z,16.87
2022-10-23T11:39:21.448Z,16.96
2022-10-23T11:41:59.403Z,16.97
2022-10-23T11:44:38.020Z,16.98
2022-10-23T11:47:27.531Z,17.15
2022-10-23T11:50:09.136Z,17.18
2022-10-23T11:52:45.528Z,16.86
2022-10-23T11:55:18.917Z,16.95
2022-10-23T11:58:05.170Z,17.24
2022-10-23T12:00:34.028Z,16.94
2022-10-23T12:03:01.932Z,17.00
2022-10-23T12:05:34.051Z,17.26
2022-10-23T12:08:02.410Z,17.09
2022-10-23T12:10:36.006Z,17.18
2022-10-23T12:13:05.383Z,17.33
2022-10-23T12:15:34.630Z,17.38
2022-10-23T12:18:18.144Z,17.50
2022-10-23T12:21:01.783Z,17.55
2022-10-23T12:23:55.644Z,17.52
2022-10-23T12:26:43.336Z,17.32
2022-10-23T12:29:34.192Z,17.73
2022-10-23T12:32:24.176Z,17.42
2022-10-23T12:35:17.916Z,17.78
2022-10-23T12:38:01.538Z,17.44
2022-10-23T12:40:28.351Z,17.51
2022-10-23T12:42:56.174Z,17.90
2022-10-23T12:45:26.165Z,17.55
2022-10-23T12:47:53.790Z,17.59
2022-10-23T12:50:33.570Z,17.90
2022-10-23T12:53:03.089Z,17.60
2022-10-23T12:55:35.119Z,17.61
2022-10-23T12:58:02.506Z,17.85
2022-10-23T13:00:28.925Z,17.92
2022-10-23T13:03:00.785Z,17.63
2022-10-23T13:05:28.180Z,17.92
2022-10-23T13:07:56.869Z,17.66
2022-10-23T13:10:24.522Z,17.82
2022-10-23T13:12:55.848Z,18.14
2022-10-23T13:15:23.446Z,17.91
2022-10-23T13:17:55.927Z,18.24
2022-10-23T13:20:34.040Z,18.08
2022-10-23T13:23:12.208Z,18.22
2022-10-23T13:25:39.979Z,18.14
2022-10-23T13:28:20.805Z,18.09
2022-10-23T13:31:01.932Z,18.07
2022-10-23T13:33:34.769Z,18.18
2022-10-23T13:36:22.815Z,18.15
2022-10-23T13:39:11.186Z,18.27
2022-10-23T13:41:41.875Z,17.81
2022-10-23T13:44:11.813Z,17.92
2022-10-23T13:46:38.288Z,18.18
2022-10-23T13:49:04.750Z,18.31
2022-10-23T13:51:40.147Z,18.28
2022-10-23T13:54:16.163Z,18.16
2022-10-23T13:56:42.649Z,18.40
2022-10-23T13:59:10.934Z,18.12
2022-10-23T14:01:38.000Z,18.34
2022-10-23T14:04:05.643Z,18.37
2022-10-23T14:06:32.996Z,18.44
2022-10-23T14:08:59.445Z,18.40
2022-10-23T14:11:26.395Z,18.42
2022-10-23T14:13:52.783Z,18.31
2022-10-23T14:16:20.155Z,18.34
2022-10-23T14:18:47.156Z,18.35
2022-10-23T14:21:18.862Z,18.42
2022-10-23T14:23:46.030Z,18.22
2022-10-23T14:26:15.605Z,18.31
2022-10-23T14:28:42.811Z,18.36
2022-10-23T14:31:12.074Z,18.29
2022-10-23T14:33:39.557Z,18.26
2022-10-23T14:36:06.755Z,18.25
2022-10-23T14:38:33.605Z,18.18
2022-10-23T14:41:00.242Z,17.76
2022-10-23T14:43:26.683Z,18.22
2022-10-23T14:45:53.205Z,18.18
2022-10-23T14:48:19.669Z,17.86
2022-10-23T14:50:48.183Z,18.19
2022-10-23T14:53:15.791Z,18.17
2022-10-23T14:55:42.190Z,17.82
2022-10-23T14:58:08.623Z,17.79
2022-10-23T15:00:35.064Z,18.11
2022-10-23T15:03:01.483Z,18.14
2022-10-23T15:05:27.974Z,17.74
2022-10-23T15:07:55.452Z,18.11
2022-10-23T15:10:21.888Z,17.79
2022-10-23T15:12:48.327Z,17.99
2022-10-23T15:15:14.748Z,18.13
2022-10-23T15:17:41.191Z,17.70
2022-10-23T15:20:07.953Z,17.99
2022-10-23T15:22:34.425Z,17.96
2022-10-23T15:25:00.829Z,18.06
2022-10-23T15:27:27.248Z,17.71
2022-10-23T15:29:53.654Z,17.67
2022-10-23T15:32:20.071Z,18.00
2022-10-23T15:34:46.512Z,18.00
2022-10-23T15:37:12.922Z,17.80
2022-10-23T15:39:39.398Z,18.06
2022-10-23T15:42:06.443Z,18.09
2022-10-23T15:44:33.729Z,17.98
2022-10-23T15:47:00.416Z,17.96
2022-10-23T15:49:28.420Z,17.89
2022-10-23T15:51:55.131Z,17.65
2022-10-23T15:54:21.833Z,17.99
2022-10-23T15:56:50.878Z,17.92
2022-10-23T15:59:18.851Z,18.04
2022-10-23T16:01:45.416Z,17.69
2022-10-23T16:04:11.967Z,17.76
2022-10-23T16:06:38.420Z,18.02
2022-10-23T16:09:05.297Z,18.04
2022-10-23T16:11:35.104Z,18.09
2022-10-23T16:14:01.620Z,18.02
2022-10-23T16:16:28.417Z,18.13
2022-10-23T16:18:55.535Z,18.00
2022-10-23T16:21:24.623Z,18.17
2022-10-23T16:23:52.119Z,17.99
2022-10-23T16:26:19.440Z,18.05
2022-10-23T16:28:47.306Z,18.03
2022-10-23T16:31:19.982Z,17.77
2022-10-23T16:33:48.200Z,18.04
2022-10-23T16:36:14.696Z,17.95
2022-10-23T16:38:41.114Z,17.75
2022-10-23T16:41:07.598Z,17.68
2022-10-23T16:43:34.127Z,17.61
2022-10-23T16:46:06.292Z,17.70
2022-10-23T16:48:34.312Z,17.86
2022-10-23T16:51:04.399Z,17.86
2022-10-23T16:53:31.270Z,17.78
2022-10-23T16:55:58.094Z,17.74
2022-10-23T16:58:26.005Z,17.75
2022-10-23T17:01:07.073Z,17.71
2022-10-23T17:03:35.752Z,17.40
2022-10-23T17:06:06.122Z,17.74
2022-10-23T17:08:35.288Z,17.62
2022-10-23T17:11:15.577Z,17.67
2022-10-23T17:13:46.131Z,17.39
2022-10-23T17:16:16.420Z,17.70
2022-10-23T17:18:44.776Z,17.66
2022-10-23T17:21:13.136Z,17.40
2022-10-23T17:23:40.011Z,17.74
2022-10-23T17:26:11.405Z,17.75
2022-10-23T17:28:38.467Z,17.68
2022-10-23T17:31:05.244Z,17.65
2022-10-23T17:33:31.670Z,17.28
2022-10-23T17:36:01.694Z,17.27
2022-10-23T17:38:28.417Z,17.53
2022-10-23T17:40:54.830Z,17.32
2022-10-23T17:43:21.312Z,17.22
2022-10-23T17:45:47.767Z,17.59
2022-10-23T17:48:14.267Z,17.38
2022-10-23T17:50:41.182Z,17.54
2022-10-23T17:53:07.938Z,17.33
2022-10-23T17:55:41.630Z,17.58
2022-10-23T17:58:08.738Z,17.22
2022-10-23T18:00:36.807Z,17.58
2022-10-23T18:03:04.445Z,17.27
2022-10-23T18:05:32.478Z,17.61
2022-10-23T18:07:59.548Z,17.72
2022-10-23T18:10:26.118Z,17.53
2022-10-23T18:12:52.547Z,17.77
2022-10-23T18:15:18.957Z,17.81
2022-10-23T18:17:45.850Z,17.72
2022-10-23T18:20:12.741Z,17.44
2022-10-23T18:22:39.147Z,17.42
2022-10-23T18:25:06.128Z,17.79
2022-10-23T18:27:32.672Z,17.71
2022-10-23T18:29:59.113Z,17.36
2022-10-23T18:32:25.483Z,17.30
2022-10-23T18:34:51.881Z,17.29
2022-10-23T18:37:18.354Z,17.34
2022-10-23T18:39:44.823Z,17.32
2022-10-23T18:42:11.226Z,17.06
2022-10-23T18:44:37.772Z,17.56
2022-10-23T18:47:04.284Z,17.46
2022-10-23T18:49:30.769Z,17.44
2022-10-23T18:51:57.395Z,16.93
2022-10-23T18:54:23.817Z,17.10
2022-10-23T18:56:50.371Z,16.88
2022-10-23T18:59:19.977Z,16.57
2022-10-23T19:01:46.664Z,16.86
2022-10-23T19:04:13.592Z,16.85
2022-10-23T19:06:40.004Z,16.48
2022-10-23T19:09:08.817Z,16.47
2022-10-23T19:11:36.281Z,16.59
2022-10-23T19:14:03.175Z,16.52
2022-10-23T19:16:43.865Z,16.16
2022-10-23T19:19:19.494Z,16.44
2022-10-23T19:21:47.256Z,16.39
2022-10-23T19:24:19.069Z,16.30
2022-10-23T19:26:46.024Z,16.22
2022-10-23T19:29:18.297Z,16.21
2022-10-23T19:31:47.102Z,16.15
2022-10-23T19:34:13.501Z,15.66
2022-10-23T19:36:40.014Z,15.82
2022-10-23T19:39:06.399Z,15.59
2022-10-23T19:41:32.930Z,15.56
2022-10-23T19:43:59.376Z,15.64
2022-10-23T19:46:25.830Z,15.50
2022-10-23T19:48:52.269Z,15.49
2022-10-23T19:51:18.770Z,14.91
2022-10-23T19:53:45.245Z,15.06
2022-10-23T19:56:12.295Z,15.28
2022-10-23T19:58:39.400Z,14.96
2022-10-23T20:01:10.335Z,15.21
2022-10-23T20:03:37.757Z,15.04
2022-10-23T20:06:04.277Z,15.05
2022-10-23T20:08:32.777Z,15.04
2022-10-23T20:11:01.616Z,15.06
2022-10-23T20:13:28.121Z,14.98
2022-10-23T20:15:54.571Z,14.78
2022-10-23T20:18:21.034Z,14.94
2022-10-23T20:20:47.483Z,14.94
2022-10-23T20:23:13.913Z,14.63
2022-10-23T20:25:40.377Z,14.94
2022-10-23T20:28:09.092Z,15.06
2022-10-23T20:30:42.168Z,14.65
2022-10-23T20:33:09.053Z,14.86
2022-10-23T20:35:43.640Z,15.01
2022-10-23T20:38:10.272Z,14.63
2022-10-23T20:40:37.124Z,14.70
2022-10-23T20:43:03.987Z,15.03
2022-10-23T20:45:30.430Z,15.09
2022-10-23T20:47:57.366Z,14.73
2022-10-23T20:50:23.777Z,15.01
2022-10-23T20:52:50.629Z,14.79
2022-10-23T20:55:17.193Z,15.03
2022-10-23T20:57:43.879Z,14.76
2022-10-23T21:00:11.071Z,15.14
2022-10-23T21:02:37.546Z,14.70
2022-10-23T21:05:04.351Z,14.80
2022-10-23T21:07:30.783Z,15.13
2022-10-23T21:09:57.198Z,14.76
2022-10-23T21:12:23.576Z,15.12
2022-10-23T21:14:49.958Z,14.90
2022-10-23T21:17:16.370Z,14.89
2022-10-23T21:19:42.804Z,15.11
2022-10-23T21:22:09.165Z,15.18
2022-10-23T21:24:35.640Z,15.31
2022-10-23T21:27:02.054Z,15.00
2022-10-23T21:29:28.536Z,15.27
2022-10-23T21:31:59.890Z,14.97
2022-10-23T21:34:27.182Z,15.23
2022-10-23T21:37:12.967Z,15.07
2022-10-23T21:39:40.637Z,15.36
2022-10-23T21:42:07.052Z,15.39
2022-10-23T21:44:33.479Z,15.11
2022-10-23T21:46:59.876Z,15.26
2022-10-23T21:49:26.371Z,15.29
2022-10-23T21:51:52.753Z,14.95
2022-10-23T21:54:19.163Z,15.27
2022-10-23T21:56:48.478Z,14.98
2022-10-23T21:59:19.219Z,15.27
2022-10-23T22:01:47.581Z,15.20
2022-10-23T22:04:15.772Z,15.16
2022-10-23T22:06:43.600Z,15.16
2022-10-23T22:09:13.042Z,15.09
2022-10-23T22:11:39.683Z,14.92
2022-10-23T22:14:06.222Z,14.81
2022-10-23T22:16:32.843Z,14.82
2022-10-23T22:18:59.260Z,15.12
2022-10-23T22:21:28.449Z,15.05
2022-10-23T22:23:57.110Z,14.86
2022-10-23T22:26:27.515Z,14.69
2022-10-23T22:28:56.467Z,14.94
2022-10-23T22:31:25.612Z,15.03
2022-10-23T22:33:52.982Z,15.00
2022-10-23T22:36:20.064Z,15.05
2022-10-23T22:38:46.718Z,15.04
2022-10-23T22:41:13.296Z,15.13
2022-10-23T22:43:39.972Z,15.35
2022-10-23T22:46:10.406Z,15.09
2022-10-23T22:48:37.273Z,15.43
2022-10-23T22:51:07.277Z,15.45
2022-10-23T22:53:35.641Z,15.51
2022-10-23T22:56:06.553Z,15.55
2022-10-23T22:58:33.533Z,15.53
2022-10-23T23:01:25.360Z,15.48
2022-10-23T23:03:52.697Z,15.39
2022-10-23T23:06:20.240Z,15.20
2022-10-23T23:08:47.391Z,15.31
2022-10-23T23:11:15.731Z,15.05
2022-10-23T23:13:43.149Z,15.30
2022-10-23T23:16:18.172Z,15.33
2022-10-23T23:18:44.708Z,15.33
2022-10-23T23:21:11.065Z,15.36
2022-10-23T23:23:37.458Z,14.99
2022-10-23T23:26:06.631Z,15.31
2022-10-23T23:28:33.533Z,15.30
2022-10-23T23:31:13.477Z,14.88
2022-10-23T23:33:39.913Z,15.23
2022-10-23T23:36:12.104Z,15.18
2022-10-23T23:38:39.262Z,14.98
2022-10-23T23:41:06.961Z,15.01
2022-10-23T23:43:33.529Z,15.42
2022-10-23T23:45:59.908Z,15.50
2022-10-23T23:48:26.399Z,15.17
2022-10-23T23:50:52.856Z,15.58
2022-10-23T23:53:19.254Z,15.55
2022-10-23T23:55:46.688Z,15.52
2022-10-23T23:58:13.324Z,15.57
